sensor_id;sensor_type;location;lat;lon;timestamp;P1;durP1;ratioP1;P2;durP2;ratioP2
28623;SDS011;15813;46.932;19.658;2023-07-08T00:01:19;807.10;;;455.70;;
28623;SDS011;15813;46.932;19.658;2023-07-08T00:03:44;806.88;;;446.92;;
28623;SDS011;15813;46.932;19.658;2023-07-08T00:06:17;808.97;;;457.05;;
28623;SDS011;15813;46.932;19.658;2023-07-08T00:08:43;803.75;;;437.80;;
28623;SDS011;15813;46.932;19.658;2023-07-08T00:11:11;800.22;;;448.75;;
28623;SDS011;15813;46.932;19.658;2023-07-08T00:13:37;805.28;;;447.90;;
28623;SDS011;15813;46.932;19.658;2023-07-08T00:16:02;796.33;;;448.48;;
28623;SDS011;15813;46.932;19.658;2023-07-08T00:18:27;802.20;;;442.45;;
28623;SDS011;15813;46.932;19.658;2023-07-08T00:20:53;802.50;;;449.63;;
28623;SDS011;15813;46.932;19.658;2023-07-08T00:23:18;797.72;;;442.67;;
28623;SDS011;15813;46.932;19.658;2023-07-08T00:25:46;802.95;;;435.35;;
28623;SDS011;15813;46.932;19.658;2023-07-08T00:28:14;803.22;;;441.63;;
28623;SDS011;15813;46.932;19.658;2023-07-08T00:30:40;801.75;;;443.08;;
28623;SDS011;15813;46.932;19.658;2023-07-08T00:33:05;796.85;;;426.55;;
28623;SDS011;15813;46.932;19.658;2023-07-08T00:35:37;766.95;;;402.30;;
28623;SDS011;15813;46.932;19.658;2023-07-08T00:38:11;779.17;;;420.42;;
28623;SDS011;15813;46.932;19.658;2023-07-08T00:40:38;794.75;;;438.30;;
28623;SDS011;15813;46.932;19.658;2023-07-08T00:43:12;794.47;;;425.92;;
28623;SDS011;15813;46.932;19.658;2023-07-08T00:45:41;796.63;;;437.38;;
28623;SDS011;15813;46.932;19.658;2023-07-08T00:48:24;790.50;;;414.23;;
28623;SDS011;15813;46.932;19.658;2023-07-08T00:50:50;791.92;;;413.75;;
28623;SDS011;15813;46.932;19.658;2023-07-08T00:56:00;799.10;;;431.77;;
28623;SDS011;15813;46.932;19.658;2023-07-08T00:58:29;792.05;;;414.15;;
28623;SDS011;15813;46.932;19.658;2023-07-08T01:00:55;794.37;;;423.87;;
28623;SDS011;15813;46.932;19.658;2023-07-08T01:03:22;789.35;;;409.08;;
28623;SDS011;15813;46.932;19.658;2023-07-08T01:05:48;791.50;;;417.58;;
28623;SDS011;15813;46.932;19.658;2023-07-08T01:08:14;799.20;;;421.77;;
28623;SDS011;15813;46.932;19.658;2023-07-08T01:10:43;794.42;;;420.73;;
28623;SDS011;15813;46.932;19.658;2023-07-08T01:13:09;794.15;;;415.73;;
28623;SDS011;15813;46.932;19.658;2023-07-08T01:15:39;788.78;;;402.65;;
28623;SDS011;15813;46.932;19.658;2023-07-08T01:18:06;793.97;;;403.55;;
28623;SDS011;15813;46.932;19.658;2023-07-08T01:20:32;802.67;;;422.98;;
28623;SDS011;15813;46.932;19.658;2023-07-08T01:22:57;805.72;;;425.20;;
28623;SDS011;15813;46.932;19.658;2023-07-08T01:25:22;795.97;;;420.83;;
28623;SDS011;15813;46.932;19.658;2023-07-08T01:27:49;808.55;;;427.08;;
28623;SDS011;15813;46.932;19.658;2023-07-08T01:30:17;801.03;;;423.65;;
28623;SDS011;15813;46.932;19.658;2023-07-08T01:32:49;795.33;;;402.27;;
28623;SDS011;15813;46.932;19.658;2023-07-08T01:35:15;796.80;;;416.40;;
28623;SDS011;15813;46.932;19.658;2023-07-08T01:37:42;795.88;;;414.77;;
28623;SDS011;15813;46.932;19.658;2023-07-08T01:40:24;794.70;;;408.48;;
28623;SDS011;15813;46.932;19.658;2023-07-08T01:42:50;796.03;;;402.50;;
28623;SDS011;15813;46.932;19.658;2023-07-08T01:45:16;795.30;;;397.90;;
28623;SDS011;15813;46.932;19.658;2023-07-08T01:47:43;800.75;;;412.13;;
28623;SDS011;15813;46.932;19.658;2023-07-08T01:50:09;805.72;;;423.25;;
28623;SDS011;15813;46.932;19.658;2023-07-08T01:52:36;802.67;;;419.30;;
28623;SDS011;15813;46.932;19.658;2023-07-08T01:55:02;801.90;;;413.67;;
28623;SDS011;15813;46.932;19.658;2023-07-08T01:57:27;799.40;;;404.77;;
28623;SDS011;15813;46.932;19.658;2023-07-08T01:59:52;796.67;;;407.70;;
28623;SDS011;15813;46.932;19.658;2023-07-08T02:02:18;800.08;;;417.85;;
28623;SDS011;15813;46.932;19.658;2023-07-08T02:04:43;806.88;;;420.92;;
28623;SDS011;15813;46.932;19.658;2023-07-08T02:07:08;801.00;;;405.02;;
28623;SDS011;15813;46.932;19.658;2023-07-08T02:09:33;799.28;;;404.60;;
28623;SDS011;15813;46.932;19.658;2023-07-08T02:11:59;796.10;;;398.25;;
28623;SDS011;15813;46.932;19.658;2023-07-08T02:14:24;804.83;;;409.05;;
28623;SDS011;15813;46.932;19.658;2023-07-08T02:16:49;797.40;;;403.48;;
28623;SDS011;15813;46.932;19.658;2023-07-08T02:19:14;796.60;;;404.05;;
28623;SDS011;15813;46.932;19.658;2023-07-08T02:21:40;795.25;;;399.75;;
28623;SDS011;15813;46.932;19.658;2023-07-08T02:24:05;792.17;;;391.85;;
28623;SDS011;15813;46.932;19.658;2023-07-08T02:26:31;796.15;;;399.83;;
28623;SDS011;15813;46.932;19.658;2023-07-08T02:28:59;800.28;;;401.77;;
28623;SDS011;15813;46.932;19.658;2023-07-08T02:31:24;798.05;;;393.65;;
28623;SDS011;15813;46.932;19.658;2023-07-08T02:33:53;793.83;;;394.33;;
28623;SDS011;15813;46.932;19.658;2023-07-08T02:36:18;793.65;;;390.20;;
28623;SDS011;15813;46.932;19.658;2023-07-08T02:38:44;787.05;;;377.58;;
28623;SDS011;15813;46.932;19.658;2023-07-08T02:41:09;789.85;;;381.45;;
28623;SDS011;15813;46.932;19.658;2023-07-08T02:43:36;790.85;;;385.98;;
28623;SDS011;15813;46.932;19.658;2023-07-08T02:46:01;793.78;;;379.98;;
28623;SDS011;15813;46.932;19.658;2023-07-08T02:48:27;788.03;;;380.80;;
28623;SDS011;15813;46.932;19.658;2023-07-08T02:50:58;790.92;;;381.02;;
28623;SDS011;15813;46.932;19.658;2023-07-08T02:53:23;796.72;;;375.38;;
28623;SDS011;15813;46.932;19.658;2023-07-08T02:55:48;789.08;;;366.00;;
28623;SDS011;15813;46.932;19.658;2023-07-08T02:58:13;791.78;;;371.40;;
28623;SDS011;15813;46.932;19.658;2023-07-08T03:00:39;794.25;;;376.10;;
28623;SDS011;15813;46.932;19.658;2023-07-08T03:03:04;789.03;;;359.38;;
28623;SDS011;15813;46.932;19.658;2023-07-08T03:05:29;785.08;;;357.33;;
28623;SDS011;15813;46.932;19.658;2023-07-08T03:07:55;786.35;;;368.70;;
28623;SDS011;15813;46.932;19.658;2023-07-08T03:10:21;790.33;;;369.50;;
28623;SDS011;15813;46.932;19.658;2023-07-08T03:12:46;781.70;;;359.00;;
28623;SDS011;15813;46.932;19.658;2023-07-08T03:15:11;789.40;;;363.85;;
28623;SDS011;15813;46.932;19.658;2023-07-08T03:17:37;795.75;;;371.13;;
28623;SDS011;15813;46.932;19.658;2023-07-08T03:20:02;790.78;;;371.10;;
28623;SDS011;15813;46.932;19.658;2023-07-08T03:22:30;787.38;;;368.17;;
28623;SDS011;15813;46.932;19.658;2023-07-08T03:24:55;802.03;;;375.17;;
28623;SDS011;15813;46.932;19.658;2023-07-08T03:27:21;782.67;;;363.88;;
28623;SDS011;15813;46.932;19.658;2023-07-08T03:29:46;789.08;;;375.13;;
28623;SDS011;15813;46.932;19.658;2023-07-08T03:32:11;785.05;;;360.10;;
28623;SDS011;15813;46.932;19.658;2023-07-08T03:34:37;781.00;;;357.60;;
28623;SDS011;15813;46.932;19.658;2023-07-08T03:37:03;785.85;;;358.15;;
28623;SDS011;15813;46.932;19.658;2023-07-08T03:39:28;786.88;;;369.27;;
28623;SDS011;15813;46.932;19.658;2023-07-08T03:41:53;786.03;;;365.88;;
28623;SDS011;15813;46.932;19.658;2023-07-08T03:44:19;785.88;;;367.05;;
28623;SDS011;15813;46.932;19.658;2023-07-08T03:46:45;786.72;;;370.05;;
28623;SDS011;15813;46.932;19.658;2023-07-08T03:49:11;789.25;;;375.58;;
28623;SDS011;15813;46.932;19.658;2023-07-08T03:51:37;791.70;;;374.98;;
28623;SDS011;15813;46.932;19.658;2023-07-08T03:54:03;790.53;;;382.58;;
28623;SDS011;15813;46.932;19.658;2023-07-08T03:56:28;786.08;;;370.95;;
28623;SDS011;15813;46.932;19.658;2023-07-08T03:58:54;791.17;;;380.80;;
28623;SDS011;15813;46.932;19.658;2023-07-08T04:01:21;797.38;;;398.98;;
28623;SDS011;15813;46.932;19.658;2023-07-08T04:03:46;798.80;;;398.20;;
28623;SDS011;15813;46.932;19.658;2023-07-08T04:06:12;799.83;;;406.90;;
28623;SDS011;15813;46.932;19.658;2023-07-08T04:08:37;795.78;;;403.35;;
28623;SDS011;15813;46.932;19.658;2023-07-08T04:11:03;802.03;;;408.73;;
28623;SDS011;15813;46.932;19.658;2023-07-08T04:13:28;794.95;;;401.15;;
28623;SDS011;15813;46.932;19.658;2023-07-08T04:15:55;807.55;;;434.95;;
28623;SDS011;15813;46.932;19.658;2023-07-08T04:18:21;806.75;;;427.65;;
28623;SDS011;15813;46.932;19.658;2023-07-08T04:20:46;811.50;;;447.25;;
28623;SDS011;15813;46.932;19.658;2023-07-08T04:23:17;807.40;;;454.23;;
28623;SDS011;15813;46.932;19.658;2023-07-08T04:25:42;809.13;;;459.30;;
28623;SDS011;15813;46.932;19.658;2023-07-08T04:28:08;819.35;;;481.55;;
28623;SDS011;15813;46.932;19.658;2023-07-08T04:30:33;822.95;;;491.05;;
28623;SDS011;15813;46.932;19.658;2023-07-08T04:32:58;813.35;;;472.40;;
28623;SDS011;15813;46.932;19.658;2023-07-08T04:35:23;818.92;;;487.67;;
28623;SDS011;15813;46.932;19.658;2023-07-08T04:37:49;822.17;;;496.25;;
28623;SDS011;15813;46.932;19.658;2023-07-08T04:40:18;827.00;;;515.90;;
28623;SDS011;15813;46.932;19.658;2023-07-08T04:42:44;832.90;;;521.92;;
28623;SDS011;15813;46.932;19.658;2023-07-08T04:45:12;826.88;;;516.90;;
28623;SDS011;15813;46.932;19.658;2023-07-08T04:47:37;838.17;;;552.97;;
28623;SDS011;15813;46.932;19.658;2023-07-08T04:50:02;840.90;;;561.35;;
28623;SDS011;15813;46.932;19.658;2023-07-08T04:52:28;846.42;;;573.83;;
28623;SDS011;15813;46.932;19.658;2023-07-08T04:54:53;844.60;;;580.97;;
28623;SDS011;15813;46.932;19.658;2023-07-08T04:57:18;858.13;;;614.05;;
28623;SDS011;15813;46.932;19.658;2023-07-08T04:59:46;867.47;;;635.47;;
28623;SDS011;15813;46.932;19.658;2023-07-08T05:02:11;859.75;;;636.03;;
28623;SDS011;15813;46.932;19.658;2023-07-08T05:04:36;830.95;;;588.47;;
28623;SDS011;15813;46.932;19.658;2023-07-08T05:07:01;861.10;;;646.22;;
28623;SDS011;15813;46.932;19.658;2023-07-08T05:09:27;869.50;;;668.22;;
28623;SDS011;15813;46.932;19.658;2023-07-08T05:11:52;868.88;;;676.58;;
28623;SDS011;15813;46.932;19.658;2023-07-08T05:14:17;882.45;;;705.72;;
28623;SDS011;15813;46.932;19.658;2023-07-08T05:16:43;886.22;;;716.33;;
28623;SDS011;15813;46.932;19.658;2023-07-08T05:19:08;890.65;;;717.60;;
28623;SDS011;15813;46.932;19.658;2023-07-08T05:21:34;885.40;;;725.78;;
28623;SDS011;15813;46.932;19.658;2023-07-08T05:24:03;883.25;;;715.08;;
28623;SDS011;15813;46.932;19.658;2023-07-08T05:28:54;885.27;;;732.03;;
28623;SDS011;15813;46.932;19.658;2023-07-08T05:31:19;890.70;;;721.22;;
28623;SDS011;15813;46.932;19.658;2023-07-08T05:33:44;883.28;;;720.75;;
28623;SDS011;15813;46.932;19.658;2023-07-08T05:36:09;898.28;;;746.05;;
28623;SDS011;15813;46.932;19.658;2023-07-08T05:38:35;884.70;;;733.17;;
28623;SDS011;15813;46.932;19.658;2023-07-08T05:41:00;896.17;;;758.65;;
28623;SDS011;15813;46.932;19.658;2023-07-08T05:43:25;893.63;;;757.60;;
28623;SDS011;15813;46.932;19.658;2023-07-08T05:45:51;904.53;;;796.35;;
28623;SDS011;15813;46.932;19.658;2023-07-08T05:48:16;902.72;;;781.35;;
28623;SDS011;15813;46.932;19.658;2023-07-08T05:50:42;917.78;;;796.63;;
28623;SDS011;15813;46.932;19.658;2023-07-08T05:53:09;908.92;;;794.67;;
28623;SDS011;15813;46.932;19.658;2023-07-08T05:55:35;908.40;;;793.95;;
28623;SDS011;15813;46.932;19.658;2023-07-08T05:58:00;910.83;;;795.10;;
28623;SDS011;15813;46.932;19.658;2023-07-08T06:00:25;907.33;;;798.08;;
28623;SDS011;15813;46.932;19.658;2023-07-08T06:02:51;914.92;;;798.58;;
28623;SDS011;15813;46.932;19.658;2023-07-08T06:05:16;940.25;;;837.47;;
28623;SDS011;15813;46.932;19.658;2023-07-08T06:07:41;940.22;;;836.42;;
28623;SDS011;15813;46.932;19.658;2023-07-08T06:10:07;948.00;;;844.33;;
28623;SDS011;15813;46.932;19.658;2023-07-08T06:12:32;964.25;;;859.35;;
28623;SDS011;15813;46.932;19.658;2023-07-08T06:14:58;961.80;;;857.33;;
28623;SDS011;15813;46.932;19.658;2023-07-08T06:17:23;975.83;;;871.00;;
28623;SDS011;15813;46.932;19.658;2023-07-08T06:19:48;977.30;;;872.47;;
28623;SDS011;15813;46.932;19.658;2023-07-08T06:22:13;970.40;;;865.72;;
28623;SDS011;15813;46.932;19.658;2023-07-08T06:24:39;984.10;;;878.35;;
28623;SDS011;15813;46.932;19.658;2023-07-08T06:27:04;989.30;;;883.67;;
28623;SDS011;15813;46.932;19.658;2023-07-08T06:29:30;996.33;;;889.63;;
28623;SDS011;15813;46.932;19.658;2023-07-08T06:31:55;998.22;;;891.53;;
28623;SDS011;15813;46.932;19.658;2023-07-08T06:34:21;1013.55;;;906.47;;
28623;SDS011;15813;46.932;19.658;2023-07-08T06:36:48;1003.25;;;896.33;;
28623;SDS011;15813;46.932;19.658;2023-07-08T06:39:13;1004.63;;;898.17;;
28623;SDS011;15813;46.932;19.658;2023-07-08T06:41:39;1014.13;;;906.58;;
28623;SDS011;15813;46.932;19.658;2023-07-08T06:44:04;1003.35;;;896.63;;
28623;SDS011;15813;46.932;19.658;2023-07-08T06:46:30;1008.42;;;901.42;;
28623;SDS011;15813;46.932;19.658;2023-07-08T06:48:55;1010.03;;;902.92;;
28623;SDS011;15813;46.932;19.658;2023-07-08T06:51:20;1013.67;;;906.20;;
28623;SDS011;15813;46.932;19.658;2023-07-08T06:53:45;1020.42;;;912.78;;
28623;SDS011;15813;46.932;19.658;2023-07-08T06:56:11;1021.33;;;913.78;;
28623;SDS011;15813;46.932;19.658;2023-07-08T06:58:36;1017.42;;;910.10;;
28623;SDS011;15813;46.932;19.658;2023-07-08T07:01:02;1025.50;;;917.35;;
28623;SDS011;15813;46.932;19.658;2023-07-08T07:03:27;1019.08;;;911.70;;
28623;SDS011;15813;46.932;19.658;2023-07-08T07:05:52;1022.13;;;914.57;;
28623;SDS011;15813;46.932;19.658;2023-07-08T07:08:17;1017.20;;;909.90;;
28623;SDS011;15813;46.932;19.658;2023-07-08T07:10:43;1021.80;;;914.45;;
28623;SDS011;15813;46.932;19.658;2023-07-08T07:13:08;1027.60;;;919.63;;
28623;SDS011;15813;46.932;19.658;2023-07-08T07:15:34;1024.88;;;916.65;;
28623;SDS011;15813;46.932;19.658;2023-07-08T07:17:59;1028.22;;;919.20;;
28623;SDS011;15813;46.932;19.658;2023-07-08T07:20:25;1035.20;;;927.47;;
28623;SDS011;15813;46.932;19.658;2023-07-08T07:22:50;1043.20;;;934.08;;
28623;SDS011;15813;46.932;19.658;2023-07-08T07:25:16;1031.30;;;923.08;;
28623;SDS011;15813;46.932;19.658;2023-07-08T07:27:42;1042.70;;;933.90;;
28623;SDS011;15813;46.932;19.658;2023-07-08T07:30:07;1049.57;;;940.77;;
28623;SDS011;15813;46.932;19.658;2023-07-08T07:32:32;1033.78;;;925.67;;
28623;SDS011;15813;46.932;19.658;2023-07-08T07:34:59;1045.38;;;936.72;;
28623;SDS011;15813;46.932;19.658;2023-07-08T07:37:24;1048.47;;;939.85;;
28623;SDS011;15813;46.932;19.658;2023-07-08T07:39:50;1032.13;;;924.00;;
28623;SDS011;15813;46.932;19.658;2023-07-08T07:42:15;1034.37;;;926.90;;
28623;SDS011;15813;46.932;19.658;2023-07-08T07:44:41;1025.65;;;918.10;;
28623;SDS011;15813;46.932;19.658;2023-07-08T07:47:07;1035.43;;;927.75;;
28623;SDS011;15813;46.932;19.658;2023-07-08T07:49:33;1042.45;;;934.17;;
28623;SDS011;15813;46.932;19.658;2023-07-08T07:51:58;1024.03;;;916.63;;
28623;SDS011;15813;46.932;19.658;2023-07-08T07:54:23;1035.05;;;926.97;;
28623;SDS011;15813;46.932;19.658;2023-07-08T07:56:49;1034.90;;;927.20;;
28623;SDS011;15813;46.932;19.658;2023-07-08T07:59:14;1025.22;;;917.42;;
28623;SDS011;15813;46.932;19.658;2023-07-08T08:01:39;1025.53;;;918.37;;
28623;SDS011;15813;46.932;19.658;2023-07-08T08:04:07;1034.15;;;926.92;;
28623;SDS011;15813;46.932;19.658;2023-07-08T08:06:33;1040.88;;;932.78;;
28623;SDS011;15813;46.932;19.658;2023-07-08T08:08:58;1053.22;;;944.70;;
28623;SDS011;15813;46.932;19.658;2023-07-08T08:11:24;1044.88;;;936.13;;
28623;SDS011;15813;46.932;19.658;2023-07-08T08:13:50;1050.70;;;941.67;;
28623;SDS011;15813;46.932;19.658;2023-07-08T08:16:16;1044.30;;;935.92;;
28623;SDS011;15813;46.932;19.658;2023-07-08T08:18:41;1045.47;;;937.33;;
28623;SDS011;15813;46.932;19.658;2023-07-08T08:21:06;1042.73;;;934.60;;
28623;SDS011;15813;46.932;19.658;2023-07-08T08:23:32;1046.30;;;937.35;;
28623;SDS011;15813;46.932;19.658;2023-07-08T08:25:57;1049.10;;;940.85;;
28623;SDS011;15813;46.932;19.658;2023-07-08T08:28:22;1059.20;;;949.50;;
28623;SDS011;15813;46.932;19.658;2023-07-08T08:30:48;1056.43;;;947.03;;
28623;SDS011;15813;46.932;19.658;2023-07-08T08:33:14;1063.32;;;953.42;;
28623;SDS011;15813;46.932;19.658;2023-07-08T08:35:39;1068.10;;;957.85;;
28623;SDS011;15813;46.932;19.658;2023-07-08T08:38:06;1075.07;;;964.45;;
28623;SDS011;15813;46.932;19.658;2023-07-08T08:40:31;1065.10;;;954.93;;
28623;SDS011;15813;46.932;19.658;2023-07-08T08:43:10;1075.78;;;965.38;;
28623;SDS011;15813;46.932;19.658;2023-07-08T08:45:57;1085.53;;;973.97;;
28623;SDS011;15813;46.932;19.658;2023-07-08T08:48:23;1081.38;;;970.70;;
28623;SDS011;15813;46.932;19.658;2023-07-08T08:50:53;1071.47;;;961.10;;
28623;SDS011;15813;46.932;19.658;2023-07-08T08:53:20;1065.30;;;955.53;;
28623;SDS011;15813;46.932;19.658;2023-07-08T08:55:47;1078.55;;;967.95;;
28623;SDS011;15813;46.932;19.658;2023-07-08T09:03:16;1063.75;;;954.05;;
28623;SDS011;15813;46.932;19.658;2023-07-08T09:05:43;1066.43;;;956.08;;
28623;SDS011;15813;46.932;19.658;2023-07-08T09:10:42;1038.38;;;929.95;;
28623;SDS011;15813;46.932;19.658;2023-07-08T09:13:12;1065.57;;;955.67;;
28623;SDS011;15813;46.932;19.658;2023-07-08T09:15:40;1072.10;;;961.88;;
28623;SDS011;15813;46.932;19.658;2023-07-08T09:18:12;1067.20;;;957.03;;
28623;SDS011;15813;46.932;19.658;2023-07-08T09:20:39;1069.68;;;959.38;;
28623;SDS011;15813;46.932;19.658;2023-07-08T09:28:07;1070.20;;;959.55;;
28623;SDS011;15813;46.932;19.658;2023-07-08T09:30:32;1068.20;;;958.85;;
28623;SDS011;15813;46.932;19.658;2023-07-08T09:33:01;1051.88;;;942.90;;
28623;SDS011;15813;46.932;19.658;2023-07-08T09:35:28;1053.43;;;945.13;;
28623;SDS011;15813;46.932;19.658;2023-07-08T09:37:54;1049.88;;;941.83;;
28623;SDS011;15813;46.932;19.658;2023-07-08T09:40:22;1052.47;;;944.05;;
28623;SDS011;15813;46.932;19.658;2023-07-08T09:42:51;1062.25;;;953.35;;
28623;SDS011;15813;46.932;19.658;2023-07-08T09:45:18;1041.80;;;933.22;;
28623;SDS011;15813;46.932;19.658;2023-07-08T09:47:44;1052.82;;;943.60;;
28623;SDS011;15813;46.932;19.658;2023-07-08T09:50:21;1049.97;;;941.55;;
28623;SDS011;15813;46.932;19.658;2023-07-08T09:52:47;1048.03;;;938.88;;
28623;SDS011;15813;46.932;19.658;2023-07-08T09:55:13;1044.88;;;936.50;;
28623;SDS011;15813;46.932;19.658;2023-07-08T09:57:38;1046.05;;;937.83;;
28623;SDS011;15813;46.932;19.658;2023-07-08T10:00:08;1049.32;;;940.70;;
28623;SDS011;15813;46.932;19.658;2023-07-08T10:02:41;1062.00;;;952.10;;
28623;SDS011;15813;46.932;19.658;2023-07-08T10:05:11;1067.07;;;956.53;;
28623;SDS011;15813;46.932;19.658;2023-07-08T10:07:37;1075.30;;;964.95;;
28623;SDS011;15813;46.932;19.658;2023-07-08T10:10:04;1076.23;;;966.03;;
28623;SDS011;15813;46.932;19.658;2023-07-08T10:12:31;1082.03;;;971.58;;
28623;SDS011;15813;46.932;19.658;2023-07-08T10:15:01;1081.75;;;971.30;;
28623;SDS011;15813;46.932;19.658;2023-07-08T10:17:28;1080.53;;;970.00;;
28623;SDS011;15813;46.932;19.658;2023-07-08T10:19:55;1072.95;;;963.10;;
28623;SDS011;15813;46.932;19.658;2023-07-08T10:27:56;1072.28;;;962.53;;
28623;SDS011;15813;46.932;19.658;2023-07-08T10:30:26;1072.60;;;962.58;;
28623;SDS011;15813;46.932;19.658;2023-07-08T10:55:18;1059.57;;;950.93;;
28623;SDS011;15813;46.932;19.658;2023-07-08T11:00:37;1060.88;;;951.72;;
28623;SDS011;15813;46.932;19.658;2023-07-08T11:03:10;1063.53;;;954.08;;
28623;SDS011;15813;46.932;19.658;2023-07-08T11:05:45;1056.22;;;947.35;;
28623;SDS011;15813;46.932;19.658;2023-07-08T11:08:17;1047.63;;;939.47;;
28623;SDS011;15813;46.932;19.658;2023-07-08T11:13:13;1047.63;;;938.57;;
28623;SDS011;15813;46.932;19.658;2023-07-08T11:20:45;1039.27;;;930.90;;
28623;SDS011;15813;46.932;19.658;2023-07-08T11:23:23;1056.93;;;948.35;;
28623;SDS011;15813;46.932;19.658;2023-07-08T11:25:52;1041.10;;;933.67;;
28623;SDS011;15813;46.932;19.658;2023-07-08T11:28:20;1046.95;;;938.58;;
28623;SDS011;15813;46.932;19.658;2023-07-08T11:30:47;1048.22;;;939.72;;
28623;SDS011;15813;46.932;19.658;2023-07-08T11:33:12;1057.18;;;948.33;;
28623;SDS011;15813;46.932;19.658;2023-07-08T11:35:49;1059.45;;;949.83;;
28623;SDS011;15813;46.932;19.658;2023-07-08T11:38:16;1051.32;;;943.03;;
28623;SDS011;15813;46.932;19.658;2023-07-08T11:40:50;1075.70;;;965.97;;
28623;SDS011;15813;46.932;19.658;2023-07-08T11:43:16;1055.95;;;946.95;;
28623;SDS011;15813;46.932;19.658;2023-07-08T11:45:41;1050.50;;;941.38;;
28623;SDS011;15813;46.932;19.658;2023-07-08T11:50:48;1048.57;;;939.63;;
28623;SDS011;15813;46.932;19.658;2023-07-08T11:55:57;1044.05;;;935.40;;
28623;SDS011;15813;46.932;19.658;2023-07-08T11:58:24;1054.40;;;945.35;;
28623;SDS011;15813;46.932;19.658;2023-07-08T12:00:57;1069.95;;;961.03;;
28623;SDS011;15813;46.932;19.658;2023-07-08T12:03:23;1043.55;;;935.45;;
28623;SDS011;15813;46.932;19.658;2023-07-08T12:05:54;1021.05;;;913.80;;
28623;SDS011;15813;46.932;19.658;2023-07-08T12:08:21;1036.43;;;928.60;;
28623;SDS011;15813;46.932;19.658;2023-07-08T12:10:57;1052.07;;;943.05;;
28623;SDS011;15813;46.932;19.658;2023-07-08T12:13:24;1060.07;;;950.50;;
28623;SDS011;15813;46.932;19.658;2023-07-08T12:15:49;1054.43;;;945.15;;
28623;SDS011;15813;46.932;19.658;2023-07-08T12:18:25;1053.68;;;943.85;;
28623;SDS011;15813;46.932;19.658;2023-07-08T12:20:53;1052.72;;;943.67;;
28623;SDS011;15813;46.932;19.658;2023-07-08T12:23:20;1059.35;;;949.63;;
28623;SDS011;15813;46.932;19.658;2023-07-08T12:25:46;1065.15;;;955.25;;
28623;SDS011;15813;46.932;19.658;2023-07-08T12:28:12;1071.63;;;961.33;;
28623;SDS011;15813;46.932;19.658;2023-07-08T12:30:38;1054.03;;;944.70;;
28623;SDS011;15813;46.932;19.658;2023-07-08T12:33:03;1064.47;;;954.42;;
28623;SDS011;15813;46.932;19.658;2023-07-08T12:35:33;1063.10;;;953.35;;
28623;SDS011;15813;46.932;19.658;2023-07-08T12:38:00;1070.60;;;960.38;;
28623;SDS011;15813;46.932;19.658;2023-07-08T12:40:27;1065.22;;;955.60;;
28623;SDS011;15813;46.932;19.658;2023-07-08T12:42:53;1054.88;;;945.33;;
28623;SDS011;15813;46.932;19.658;2023-07-08T12:45:19;1064.80;;;954.65;;
28623;SDS011;15813;46.932;19.658;2023-07-08T12:47:45;1059.05;;;949.10;;
28623;SDS011;15813;46.932;19.658;2023-07-08T12:50:11;1047.40;;;938.60;;
28623;SDS011;15813;46.932;19.658;2023-07-08T12:52:37;1042.03;;;933.05;;
28623;SDS011;15813;46.932;19.658;2023-07-08T12:55:02;1063.43;;;953.95;;
28623;SDS011;15813;46.932;19.658;2023-07-08T12:57:28;1050.50;;;941.65;;
28623;SDS011;15813;46.932;19.658;2023-07-08T12:59:53;1043.38;;;934.88;;
28623;SDS011;15813;46.932;19.658;2023-07-08T13:02:19;1042.68;;;934.47;;
28623;SDS011;15813;46.932;19.658;2023-07-08T13:04:46;1040.47;;;932.13;;
28623;SDS011;15813;46.932;19.658;2023-07-08T13:07:32;1055.30;;;946.47;;
28623;SDS011;15813;46.932;19.658;2023-07-08T13:09:58;1056.50;;;947.25;;
28623;SDS011;15813;46.932;19.658;2023-07-08T13:12:24;1046.75;;;937.63;;
28623;SDS011;15813;46.932;19.658;2023-07-08T13:14:51;1044.30;;;935.63;;
28623;SDS011;15813;46.932;19.658;2023-07-08T13:17:17;1048.82;;;939.92;;
28623;SDS011;15813;46.932;19.658;2023-07-08T13:19:43;1048.43;;;939.75;;
28623;SDS011;15813;46.932;19.658;2023-07-08T13:22:13;1053.85;;;945.25;;
28623;SDS011;15813;46.932;19.658;2023-07-08T13:24:39;1050.63;;;942.28;;
28623;SDS011;15813;46.932;19.658;2023-07-08T13:27:06;1047.55;;;938.53;;
28623;SDS011;15813;46.932;19.658;2023-07-08T13:29:34;1046.65;;;938.35;;
28623;SDS011;15813;46.932;19.658;2023-07-08T13:32:03;1056.68;;;947.25;;
28623;SDS011;15813;46.932;19.658;2023-07-08T13:34:30;1052.70;;;943.42;;
28623;SDS011;15813;46.932;19.658;2023-07-08T13:36:57;1037.90;;;929.03;;
28623;SDS011;15813;46.932;19.658;2023-07-08T13:39:32;1041.10;;;931.83;;
28623;SDS011;15813;46.932;19.658;2023-07-08T13:41:58;1044.57;;;935.63;;
28623;SDS011;15813;46.932;19.658;2023-07-08T13:44:24;1027.78;;;919.72;;
28623;SDS011;15813;46.932;19.658;2023-07-08T13:51:40;1040.23;;;931.60;;
28623;SDS011;15813;46.932;19.658;2023-07-08T13:54:25;1027.88;;;919.78;;
28623;SDS011;15813;46.932;19.658;2023-07-08T13:56:51;1043.22;;;934.63;;
28623;SDS011;15813;46.932;19.658;2023-07-08T13:59:23;1039.47;;;930.97;;
28623;SDS011;15813;46.932;19.658;2023-07-08T14:01:49;1044.13;;;935.28;;
28623;SDS011;15813;46.932;19.658;2023-07-08T14:04:17;1027.70;;;920.20;;
28623;SDS011;15813;46.932;19.658;2023-07-08T14:06:43;1030.70;;;922.72;;
28623;SDS011;15813;46.932;19.658;2023-07-08T14:11:37;1010.97;;;903.85;;
28623;SDS011;15813;46.932;19.658;2023-07-08T14:14:02;1022.97;;;915.15;;
28623;SDS011;15813;46.932;19.658;2023-07-08T14:16:28;1012.63;;;905.53;;
28623;SDS011;15813;46.932;19.658;2023-07-08T14:18:54;1021.70;;;914.55;;
28623;SDS011;15813;46.932;19.658;2023-07-08T14:21:20;1012.75;;;905.88;;
28623;SDS011;15813;46.932;19.658;2023-07-08T14:23:45;1025.63;;;918.42;;
28623;SDS011;15813;46.932;19.658;2023-07-08T14:26:11;1013.77;;;907.07;;
28623;SDS011;15813;46.932;19.658;2023-07-08T14:28:36;1008.90;;;902.53;;
28623;SDS011;15813;46.932;19.658;2023-07-08T14:31:01;1022.17;;;915.65;;
28623;SDS011;15813;46.932;19.658;2023-07-08T14:33:27;1026.13;;;918.10;;
28623;SDS011;15813;46.932;19.658;2023-07-08T14:35:52;1026.13;;;918.23;;
28623;SDS011;15813;46.932;19.658;2023-07-08T14:38:17;1029.70;;;922.00;;
28623;SDS011;15813;46.932;19.658;2023-07-08T14:40:43;1026.00;;;918.22;;
28623;SDS011;15813;46.932;19.658;2023-07-08T14:45:43;1022.03;;;914.45;;
28623;SDS011;15813;46.932;19.658;2023-07-08T14:48:12;1011.42;;;904.83;;